Prevelis — SYDL — position and weather

sailwx.info

Track history (hours):
 
Tides and Currents Weather Stations Pressure Air Temp Water Temp Dewpoint Dewpoint Depression Visibility Wind Speed Wind Dir Waves Ship Positions

Prevelis

Last reported at 2016-Feb-06 02:32 UTC. Time now 2016-Feb-06 03:03 UTC.
Position N 37°57' E 023°38'.

Length 143 m; draft 5.5 m.

Type: Passenger vessel. MMSI: 239297000.

Date/timePositionNaut miles runAvg speedWind from/ knotsBaromVisibWave heightAir tempDewpointWater temp
2016-Feb-06 02:32N 37°57' E 023°38'0 0.0
2016-Feb-06 01:33N 37°57' E 023°38'0 0.0
2016-Feb-06 00:33N 37°57' E 023°38'0 0.0
2016-Feb-05 23:33N 37°57' E 023°38'0 0.0
2016-Feb-05 22:33N 37°57' E 023°38'0 0.0
2016-Feb-05 21:33N 37°57' E 023°38'0 0.0
2016-Feb-05 20:33N 37°57' E 023°38'0 0.0
2016-Feb-05 19:33N 37°57' E 023°38'0 0.0
2016-Feb-05 18:33N 37°57' E 023°38'0 0.0
2016-Feb-05 17:33N 37°57' E 023°38'0 0.0
2016-Feb-05 16:33N 37°57' E 023°38'0 0.0
2016-Feb-05 15:33N 37°57' E 023°38'0 0.0
2016-Feb-05 14:33N 37°57' E 023°38'0 0.0
2016-Feb-05 13:33N 37°57' E 023°38'0 0.0
2016-Feb-05 12:33N 37°57' E 023°38'0 0.0
2016-Feb-05 11:33N 37°57' E 023°38'0 0.0
2016-Feb-05 10:33N 37°57' E 023°38'0 0.0
2016-Feb-05 09:33N 37°57' E 023°38'0 0.0
2016-Feb-05 08:33N 37°57' E 023°38'0 0.0
2016-Feb-05 07:33N 37°57' E 023°38'0 0.0
2016-Feb-05 06:33N 37°57' E 023°38'0 0.0
2016-Feb-05 05:33N 37°57' E 023°38'0 0.0
2016-Feb-05 04:33N 37°57' E 023°38'0 0.0
2016-Feb-05 03:33N 37°57' E 023°38'1312.8
2016-Feb-05 02:33N 37°45' E 023°43'206 6.6
2016-Feb-03 19:15N 35°51' E 027°18'8 9.9
2016-Feb-03 18:26N 35°43' E 027°15'2111.2
2016-Feb-03 16:31N 35°23' E 027°07'2813.8
2016-Feb-03 14:29N 35°39' E 026°39'1918.1
2016-Feb-03 13:26N 35°52' E 026°21'6711.0
2016-Feb-03 07:19N 36°26' E 025°09'1417.2
2016-Feb-03 06:32N 36°33' E 024°55'8313.8
2016-Feb-03 00:33N 37°35' E 023°46'1717.3
2016-Feb-02 23:33N 37°51' E 023°37'6 6.4
2016-Feb-02 22:34N 37°57' E 023°38'0 0.0
2016-Feb-02 21:33N 37°57' E 023°38'0 0.0
2016-Feb-02 20:34N 37°57' E 023°38'3 3.0
2016-Feb-02 19:33N 37°54' E 023°38'1817.2
2016-Feb-02 18:30N 37°37' E 023°47'1718.2
2016-Feb-02 17:33N 37°22' E 023°57'7614.2
2016-Feb-02 12:13N 36°29' E 025°05'35 7.5
2016-Feb-02 07:31N 36°05' E 025°37'4811.9
2016-Feb-02 03:29N 35°22' E 025°12'41 1.2
2016-Jan-31 18:14N 35°59' E 025°34'40 7.0
2016-Jan-31 12:32N 36°30' E 025°03'10014.3
2016-Jan-31 05:33N 37°45' E 023°40'1212.1
2016-Jan-31 04:33N 37°57' E 023°38'0 0.0
2016-Jan-31 03:33N 37°57' E 023°38'0 0.0
2016-Jan-31 02:34N 37°57' E 023°38'0 0.0
2016-Jan-31 01:31N 37°57' E 023°38'0 0.0
2016-Jan-31 00:33N 37°57' E 023°38'0 0.0
2016-Jan-30 23:33N 37°57' E 023°38'0 0.0
2016-Jan-30 22:33N 37°57' E 023°38'0 0.0
2016-Jan-30 21:34N 37°57' E 023°38'0 0.0
2016-Jan-30 20:33N 37°57' E 023°38'0 0.0
2016-Jan-30 19:34N 37°57' E 023°38'0 0.0
2016-Jan-30 18:33N 37°57' E 023°38'0 0.0
2016-Jan-30 17:33N 37°57' E 023°38'0 0.0
2016-Jan-30 16:33N 37°57' E 023°38'0 0.0
2016-Jan-30 15:33N 37°57' E 023°38'0 0.0
2016-Jan-30 14:33N 37°57' E 023°38'0 0.0
2016-Jan-30 13:32N 37°57' E 023°38'0 0.0
2016-Jan-30 12:33N 37°57' E 023°38'0 0.0
2016-Jan-30 11:34N 37°57' E 023°38'0 0.0
2016-Jan-30 10:33N 37°57' E 023°38'0 0.0
2016-Jan-30 09:33N 37°57' E 023°38'0 0.0
2016-Jan-30 08:34N 37°57' E 023°38'0 0.0
2016-Jan-30 07:33N 37°57' E 023°38'0 0.0
2016-Jan-30 06:33N 37°57' E 023°38'0 0.0
2016-Jan-30 05:33N 37°57' E 023°38'0 0.0
2016-Jan-30 04:33N 37°57' E 023°38'0 0.0
2016-Jan-30 03:33N 37°57' E 023°38'0 0.0
2016-Jan-30 02:33N 37°57' E 023°38'0 0.0
2016-Jan-30 01:33N 37°57' E 023°38'0 0.0
2016-Jan-30 00:34N 37°57' E 023°38'0 0.0
2016-Jan-29 23:33N 37°57' E 023°38'0 0.0
2016-Jan-29 22:33N 37°57' E 023°38'0 0.0
2016-Jan-29 21:33N 37°57' E 023°38'0 0.0
2016-Jan-29 20:33N 37°57' E 023°38'0 0.0
2016-Jan-29 19:34N 37°57' E 023°38'0 0.0
2016-Jan-29 18:33N 37°57' E 023°38'0 0.0
2016-Jan-29 17:34N 37°57' E 023°38'0 0.0
2016-Jan-29 16:33N 37°57' E 023°38'0 0.0
2016-Jan-29 15:33N 37°57' E 023°38'0 0.0
2016-Jan-29 14:33N 37°57' E 023°38'0 0.0
2016-Jan-29 13:33N 37°57' E 023°38'0 0.0
2016-Jan-29 12:33N 37°57' E 023°38'0 0.0
2016-Jan-29 11:33N 37°57' E 023°38'0 0.0
2016-Jan-29 10:33N 37°57' E 023°38'0 0.0
2016-Jan-29 09:34N 37°57' E 023°38'0 0.0
2016-Jan-29 08:33N 37°57' E 023°38'0 0.0
2016-Jan-29 07:33N 37°57' E 023°38'0 0.0
2016-Jan-29 06:33N 37°57' E 023°38'0 0.0
2016-Jan-29 05:34N 37°57' E 023°38'0 0.0
2016-Jan-29 04:33N 37°57' E 023°38'1 1.0
2016-Jan-29 03:33N 37°56' E 023°37'1716.5
2016-Jan-29 02:33N 37°41' E 023°45'9914.0
2016-Jan-28 19:28N 36°28' E 025°09'35 8.5
2016-Jan-28 15:24N 36°15' E 025°50'2418.0
2016-Jan-28 14:03N 35°59' E 026°12'  
Track history (hours):
 
Tides and Currents Weather Stations Pressure Air Temp Water Temp Dewpoint Dewpoint Depression Visibility Wind Speed Wind Dir Waves Ship Positions

Prevelis

Last reported at 2016-Feb-06 02:32 UTC. Time now 2016-Feb-06 03:03 UTC.
Position N 37°57' E 023°38'.

Length 143 m; draft 5.5 m.

Type: Passenger vessel. MMSI: 239297000.

Date/timePositionNaut miles runAvg speedWind from/ knotsBaromVisibWave heightAir tempDewpointWater temp
2016-Feb-06 02:32N 37°57' E 023°38'0 0.0
2016-Feb-06 01:33N 37°57' E 023°38'0 0.0
2016-Feb-06 00:33N 37°57' E 023°38'0 0.0
2016-Feb-05 23:33N 37°57' E 023°38'0 0.0
2016-Feb-05 22:33N 37°57' E 023°38'0 0.0
2016-Feb-05 21:33N 37°57' E 023°38'0 0.0
2016-Feb-05 20:33N 37°57' E 023°38'0 0.0
2016-Feb-05 19:33N 37°57' E 023°38'0 0.0
2016-Feb-05 18:33N 37°57' E 023°38'0 0.0
2016-Feb-05 17:33N 37°57' E 023°38'0 0.0
2016-Feb-05 16:33N 37°57' E 023°38'0 0.0
2016-Feb-05 15:33N 37°57' E 023°38'0 0.0
2016-Feb-05 14:33N 37°57' E 023°38'0 0.0
2016-Feb-05 13:33N 37°57' E 023°38'0 0.0
2016-Feb-05 12:33N 37°57' E 023°38'0 0.0
2016-Feb-05 11:33N 37°57' E 023°38'0 0.0
2016-Feb-05 10:33N 37°57' E 023°38'0 0.0
2016-Feb-05 09:33N 37°57' E 023°38'0 0.0
2016-Feb-05 08:33N 37°57' E 023°38'0 0.0
2016-Feb-05 07:33N 37°57' E 023°38'0 0.0
2016-Feb-05 06:33N 37°57' E 023°38'0 0.0
2016-Feb-05 05:33N 37°57' E 023°38'0 0.0
2016-Feb-05 04:33N 37°57' E 023°38'0 0.0
2016-Feb-05 03:33N 37°57' E 023°38'1312.8
2016-Feb-05 02:33N 37°45' E 023°43'206 6.6
2016-Feb-03 19:15N 35°51' E 027°18'8 9.9
2016-Feb-03 18:26N 35°43' E 027°15'2111.2
2016-Feb-03 16:31N 35°23' E 027°07'2813.8
2016-Feb-03 14:29N 35°39' E 026°39'1918.1
2016-Feb-03 13:26N 35°52' E 026°21'6711.0
2016-Feb-03 07:19N 36°26' E 025°09'1417.2
2016-Feb-03 06:32N 36°33' E 024°55'8313.8
2016-Feb-03 00:33N 37°35' E 023°46'1717.3
2016-Feb-02 23:33N 37°51' E 023°37'6 6.4
2016-Feb-02 22:34N 37°57' E 023°38'0 0.0
2016-Feb-02 21:33N 37°57' E 023°38'0 0.0
2016-Feb-02 20:34N 37°57' E 023°38'3 3.0
2016-Feb-02 19:33N 37°54' E 023°38'1817.2
2016-Feb-02 18:30N 37°37' E 023°47'1718.2
2016-Feb-02 17:33N 37°22' E 023°57'7614.2
2016-Feb-02 12:13N 36°29' E 025°05'35 7.5
2016-Feb-02 07:31N 36°05' E 025°37'4811.9
2016-Feb-02 03:29N 35°22' E 025°12'41 1.2
2016-Jan-31 18:14N 35°59' E 025°34'40 7.0
2016-Jan-31 12:32N 36°30' E 025°03'10014.3
2016-Jan-31 05:33N 37°45' E 023°40'1212.1
2016-Jan-31 04:33N 37°57' E 023°38'0 0.0
2016-Jan-31 03:33N 37°57' E 023°38'0 0.0
2016-Jan-31 02:34N 37°57' E 023°38'0 0.0
2016-Jan-31 01:31N 37°57' E 023°38'0 0.0
2016-Jan-31 00:33N 37°57' E 023°38'0 0.0
2016-Jan-30 23:33N 37°57' E 023°38'0 0.0
2016-Jan-30 22:33N 37°57' E 023°38'0 0.0
2016-Jan-30 21:34N 37°57' E 023°38'0 0.0
2016-Jan-30 20:33N 37°57' E 023°38'0 0.0
2016-Jan-30 19:34N 37°57' E 023°38'0 0.0
2016-Jan-30 18:33N 37°57' E 023°38'0 0.0
2016-Jan-30 17:33N 37°57' E 023°38'0 0.0
2016-Jan-30 16:33N 37°57' E 023°38'0 0.0
2016-Jan-30 15:33N 37°57' E 023°38'0 0.0
2016-Jan-30 14:33N 37°57' E 023°38'0 0.0
2016-Jan-30 13:32N 37°57' E 023°38'0 0.0
2016-Jan-30 12:33N 37°57' E 023°38'0 0.0
2016-Jan-30 11:34N 37°57' E 023°38'0 0.0
2016-Jan-30 10:33N 37°57' E 023°38'0 0.0
2016-Jan-30 09:33N 37°57' E 023°38'0 0.0
2016-Jan-30 08:34N 37°57' E 023°38'0 0.0
2016-Jan-30 07:33N 37°57' E 023°38'0 0.0
2016-Jan-30 06:33N 37°57' E 023°38'0 0.0
2016-Jan-30 05:33N 37°57' E 023°38'0 0.0
2016-Jan-30 04:33N 37°57' E 023°38'0 0.0
2016-Jan-30 03:33N 37°57' E 023°38'0 0.0
2016-Jan-30 02:33N 37°57' E 023°38'0 0.0
2016-Jan-30 01:33N 37°57' E 023°38'0 0.0
2016-Jan-30 00:34N 37°57' E 023°38'0 0.0
2016-Jan-29 23:33N 37°57' E 023°38'0 0.0
2016-Jan-29 22:33N 37°57' E 023°38'0 0.0
2016-Jan-29 21:33N 37°57' E 023°38'0 0.0
2016-Jan-29 20:33N 37°57' E 023°38'0 0.0
2016-Jan-29 19:34N 37°57' E 023°38'0 0.0
2016-Jan-29 18:33N 37°57' E 023°38'0 0.0
2016-Jan-29 17:34N 37°57' E 023°38'0 0.0
2016-Jan-29 16:33N 37°57' E 023°38'0 0.0
2016-Jan-29 15:33N 37°57' E 023°38'0 0.0
2016-Jan-29 14:33N 37°57' E 023°38'0 0.0
2016-Jan-29 13:33N 37°57' E 023°38'0 0.0
2016-Jan-29 12:33N 37°57' E 023°38'0 0.0
2016-Jan-29 11:33N 37°57' E 023°38'0 0.0
2016-Jan-29 10:33N 37°57' E 023°38'0 0.0
2016-Jan-29 09:34N 37°57' E 023°38'0 0.0
2016-Jan-29 08:33N 37°57' E 023°38'0 0.0
2016-Jan-29 07:33N 37°57' E 023°38'0 0.0
2016-Jan-29 06:33N 37°57' E 023°38'0 0.0
2016-Jan-29 05:34N 37°57' E 023°38'0 0.0
2016-Jan-29 04:33N 37°57' E 023°38'1 1.0
2016-Jan-29 03:33N 37°56' E 023°37'1716.5
2016-Jan-29 02:33N 37°41' E 023°45'9914.0
2016-Jan-28 19:28N 36°28' E 025°09'35 8.5
2016-Jan-28 15:24N 36°15' E 025°50'2418.0
2016-Jan-28 14:03N 35°59' E 026°12'  

Dump ship's entire track history